KSYN/SYN METAR and TAF weather

Enter ICAO airport designator
Station Type Date Time Source
KSYN METAR 2021/09/28 04:35 UTC NOAA

KSYN 280435Z AUTO 00000KT 10SM CLR 10/08 A2993 RMK AO2 T00960083


Station Type Date Time Source
KSYN Decoded METAR 2021/09/28 04:35 UTC NOAA

Stanton, Stanton Airfield, MN, United States (KSYN) 44-28-31N 093-00-58W
Sep 28, 2021 - 12:35 AM EDT / 2021.09.28 0435 UTC
Wind: Calm:0
Visibility: 10 mile(s):0
Sky conditions: clear
Temperature: 49.3 F (9.6 C)
Dew Point: 46.9 F (8.3 C)
Relative Humidity: 91%
Pressure (altimeter): 29.93 in. Hg (1013 hPa)
ob: KSYN 280435Z AUTO 00000KT 10SM CLR 10/08 A2993 RMK AO2 T00960083
cycle: 4

Station Type Date Time Source
KSYN TAF UTC NOAA

Error!

Example: see airport list